Airfield :
LOGIN :

Register | Disclaimer

   EN    FR    IT 

 










Legend :    VFR   Marginal VFR   IFR   Intensive IFR   Very Intensive IFR
Visi :
Ceiling :
>= 8 km
>= 3000ft
5 to 8 km
1000 to 3000 ft
1500m to 5 km
500 to 1000 ft
800 to 1500m
200 to 500 ft
< 800m
< 200 ft
Symbols :   Thunderstorms  Fog  Heavy snow  Heavy precipitations  Wind > 20 kt
SIGMETs :     Misc.  Thunderstorms  Icing  Turbulence  Mountain Waves  Volcanic Ashes






- Airport Elevation : 37 ft


EHVL - Vlieland Heliport

CURRENT METAR :
  • 231140Z AUTO 17014KT 9999 FEW018 SCT025 20/16 Q1001 BLU

EXPIRED METARs :
  • 231125Z AUTO 17013KT 9999 SCT021 BKN026 19/16 Q1001 WHT
  • 231055Z AUTO 17013KT 8000 BR SCT015 BKN020 BKN023 19/16 Q1001 WHT
  • 231048Z AUTO 17014KT 9000 BR SCT016 OVC077 19/16 Q1001 WHT
  • 231025Z AUTO 20014KT 9999 FEW012 SCT016 BKN021 19/16 Q1002 WHT
  • 231019Z AUTO 20015KT 9999 FEW013 SCT020 BKN026 19/16 Q1002 WHT
  • 231002Z AUTO 20016KT 9999 SCT012 BKN015 BKN018 19/16 Q1002 GRN
  • 230955Z AUTO 20017KT 9999 FEW014 BKN016 BKN020 19/16 Q1002 WHT
  • 230949Z AUTO 21016KT 9999 FEW013 BKN015 BKN020 20/16 Q1002 WHT
  • 230941Z AUTO 21017KT 9999 SCT013 BKN016 OVC019 19/15 Q1002 GRN
  • 230925Z AUTO 22015KT 9999 SCT015 BKN018 BKN022 19/15 Q1002 WHT
  • 230915Z AUTO 22017KT 9999 SCT013 BKN016 OVC075 19/15 Q1002 GRN
  • 230907Z AUTO 22017KT 9999 FEW013 BKN015 BKN021 19/15 Q1002 WHT
  • 230859Z AUTO 22017KT 9999 FEW013 SCT016 BKN022 19/15 Q1002 WHT
  • 230838Z AUTO 21013KT 9999 FEW011 BKN330 18/15 Q1002 BLU

Expired Forecast.



MET'MAP, your aeronautical weather chart ! - Copyright ORBIFLY December 2007 - Disclaimer

ORBIFLY MET'MAP TEAM :

Programming & Development : Alexandra Zaïnal
Concept & original design : Baudouin d'Aumeries
Assistance for programming : Marc-Olivier Méhu
Technical & hardware support : Manuel Goepfert

Contact : metmap@orbifly.com




SOURCES & CREDITS :

   NOAA